Time;durP1;ratioP1;P1;durP2;ratioP2;P2;SDS_P1;SDS_P2;PMS_P1;PMS_P2;Temp;Humidity;BMP_temperature;BMP_pressure;BME280_temperature;BME280_humidity;BME280_pressure;Samples;Min_cycle;Max_cycle;Signal;HPM_P1;HPM_P2
2024/02/28 00:00:27;;;;;;;0.30;0.20;;;13.30;99.90;;;;;;5086226;28;20473;-76
2024/02/28 00:02:53;;;;;;;0.30;0.20;;;13.30;99.90;;;;;;5086200;28;20441;-77
2024/02/28 00:05:19;;;;;;;0.30;0.20;;;13.30;99.90;;;;;;5086242;28;20625;-77
2024/02/28 00:07:45;;;;;;;1.80;1.70;;;13.30;99.90;;;;;;5086441;28;20209;-77
2024/02/28 00:10:11;;;;;;;1.57;1.50;;;13.40;99.90;;;;;;5085024;28;20326;-76
2024/02/28 00:12:38;;;;;;;0.30;0.30;;;13.40;99.90;;;;;;5086031;28;20480;-77
2024/02/28 00:15:05;;;;;;;0.30;0.20;;;13.40;99.90;;;;;;5085397;28;20173;-77
2024/02/28 00:17:31;;;;;;;0.30;0.20;;;13.40;99.90;;;;;;5084698;28;20455;-77
2024/02/28 00:19:56;;;;;;;0.30;0.20;;;13.40;99.90;;;;;;5085861;28;20393;-77
2024/02/28 00:22:22;;;;;;;2.20;1.43;;;13.40;99.90;;;;;;5085626;28;20208;-76
2024/02/28 00:24:48;;;;;;;0.30;0.20;;;13.30;99.90;;;;;;5085990;28;20179;-76
2024/02/28 00:27:13;;;;;;;0.40;0.30;;;13.30;99.90;;;;;;5084992;28;20236;-76
2024/02/28 00:29:39;;;;;;;0.30;0.20;;;13.30;99.90;;;;;;5084390;28;20241;-77
2024/02/28 00:32:05;;;;;;;0.30;0.20;;;13.20;99.90;;;;;;5085853;28;20895;-77
2024/02/28 00:34:31;;;;;;;0.30;0.20;;;13.20;99.90;;;;;;5085636;28;20211;-77
2024/02/28 00:36:56;;;;;;;0.30;0.20;;;13.10;99.90;;;;;;5085359;28;20927;-76
2024/02/28 00:39:22;;;;;;;0.30;0.20;;;13.10;99.90;;;;;;5085802;28;20208;-76
2024/02/28 00:41:48;;;;;;;0.30;0.20;;;13.10;99.90;;;;;;5083897;28;20579;-76
2024/02/28 00:44:14;;;;;;;0.30;0.20;;;13.10;99.90;;;;;;5085114;28;20441;-77
2024/02/28 00:46:40;;;;;;;0.40;0.30;;;13.00;99.90;;;;;;5085434;28;20175;-77
2024/02/28 00:49:05;;;;;;;0.30;0.30;;;13.00;99.90;;;;;;5085508;28;20211;-77
2024/02/28 00:51:31;;;;;;;0.30;0.20;;;13.00;99.90;;;;;;5084026;28;20269;-77
2024/02/28 00:53:57;;;;;;;0.30;0.20;;;13.00;99.90;;;;;;5084261;28;20239;-77
2024/02/28 00:56:24;;;;;;;0.30;0.20;;;12.90;99.90;;;;;;5085024;28;20168;-77
2024/02/28 00:58:50;;;;;;;0.30;0.20;;;12.90;99.90;;;;;;5084161;28;20231;-76
2024/02/28 01:01:15;;;;;;;0.63;0.63;;;12.90;99.90;;;;;;5084662;28;20397;-77
2024/02/28 01:03:41;;;;;;;0.47;0.43;;;12.90;99.90;;;;;;5083972;28;20290;-77
2024/02/28 01:06:07;;;;;;;0.40;0.40;;;12.90;99.90;;;;;;5083131;28;20177;-77
2024/02/28 01:08:32;;;;;;;0.40;0.37;;;12.90;99.90;;;;;;5085405;28;20201;-77
2024/02/28 01:10:59;;;;;;;0.40;0.40;;;12.90;99.90;;;;;;5084605;28;20224;-77
2024/02/28 01:13:24;;;;;;;0.30;0.20;;;12.90;99.90;;;;;;5083993;28;20212;-77
2024/02/28 01:15:50;;;;;;;0.30;0.20;;;12.90;99.90;;;;;;5085204;28;20401;-77
2024/02/28 01:18:16;;;;;;;5.30;5.10;;;12.80;99.90;;;;;;5084767;28;20193;-77
2024/02/28 01:20:41;;;;;;;0.30;0.20;;;12.80;99.90;;;;;;5083884;28;20730;-77
2024/02/28 01:23:07;;;;;;;0.30;0.30;;;12.80;99.90;;;;;;5084597;28;20593;-77
2024/02/28 01:25:33;;;;;;;0.30;0.20;;;12.80;99.90;;;;;;5082281;28;20226;-77
2024/02/28 01:27:58;;;;;;;0.30;0.20;;;12.80;99.90;;;;;;5084826;28;20208;-77
2024/02/28 01:30:24;;;;;;;0.30;0.20;;;12.80;99.90;;;;;;5084919;28;20191;-76
2024/02/28 01:32:50;;;;;;;0.30;0.20;;;12.80;99.90;;;;;;5082641;28;20223;-77
2024/02/28 01:35:16;;;;;;;0.30;0.20;;;12.80;99.90;;;;;;5084901;28;20380;-76
2024/02/28 01:37:41;;;;;;;0.30;0.30;;;12.90;99.90;;;;;;5083539;28;20228;-76
2024/02/28 01:40:07;;;;;;;0.30;0.20;;;12.90;99.90;;;;;;5084669;28;20561;-77
2024/02/28 01:42:33;;;;;;;0.30;0.20;;;13.00;99.90;;;;;;5084244;28;20184;-77
2024/02/28 01:44:59;;;;;;;0.30;0.30;;;13.00;99.90;;;;;;5084525;28;20397;-76
2024/02/28 01:47:24;;;;;;;0.30;0.20;;;13.00;99.90;;;;;;5084476;28;20253;-77
2024/02/28 01:49:50;;;;;;;0.50;0.50;;;13.00;99.90;;;;;;5084755;28;20284;-77
2024/02/28 01:52:17;;;;;;;0.30;0.20;;;13.00;99.90;;;;;;5084174;28;20776;-77
2024/02/28 01:54:43;;;;;;;0.30;0.20;;;13.10;99.90;;;;;;5084543;28;20401;-77
2024/02/28 01:57:09;;;;;;;0.30;0.20;;;13.10;99.90;;;;;;5083164;28;21069;-77
2024/02/28 01:59:35;;;;;;;0.30;0.20;;;13.10;99.90;;;;;;5083479;28;20693;-77
2024/02/28 02:02:01;;;;;;;0.30;0.30;;;13.00;99.90;;;;;;5083978;28;20416;-77
2024/02/28 02:04:26;;;;;;;0.73;0.73;;;13.00;99.90;;;;;;5084491;28;20206;-77
2024/02/28 02:06:57;;;;;;;4.63;2.00;;;13.00;99.90;;;;;;5083071;28;20236;-76
2024/02/28 02:09:24;;;;;;;0.30;0.20;;;13.00;99.90;;;;;;5083152;28;20208;-77
2024/02/28 02:11:49;;;;;;;0.30;0.20;;;13.00;99.90;;;;;;5084111;28;20570;-77
2024/02/28 02:14:15;;;;;;;0.30;0.30;;;13.00;99.90;;;;;;5082871;28;20938;-77
2024/02/28 02:16:41;;;;;;;0.30;0.20;;;13.00;99.90;;;;;;5082923;28;20173;-77
2024/02/28 02:19:09;;;;;;;0.50;0.50;;;13.10;99.90;;;;;;5084196;28;20196;-77
2024/02/28 02:21:41;;;;;;;0.30;0.20;;;13.00;99.90;;;;;;5084010;28;20255;-77
2024/02/28 02:24:06;;;;;;;0.30;0.20;;;13.10;99.90;;;;;;5082489;28;20445;-77
2024/02/28 02:26:32;;;;;;;0.30;0.27;;;13.00;99.90;;;;;;5084049;28;20408;-77
2024/02/28 02:28:58;;;;;;;0.50;0.50;;;13.10;99.90;;;;;;5084671;28;20695;-77
2024/02/28 02:31:23;;;;;;;0.30;0.20;;;13.00;99.90;;;;;;5082447;28;20215;-77
2024/02/28 02:33:49;;;;;;;0.57;0.57;;;13.00;99.90;;;;;;5083081;28;20207;-76
2024/02/28 02:36:14;;;;;;;0.40;0.40;;;13.00;99.90;;;;;;5083056;28;20172;-77
2024/02/28 02:38:40;;;;;;;1.07;0.93;;;13.00;99.90;;;;;;5088465;28;20269;-77
2024/02/28 02:41:06;;;;;;;0.30;0.30;;;13.10;99.90;;;;;;5087679;28;20260;-77
2024/02/28 02:43:31;;;;;;;0.30;0.20;;;13.10;99.90;;;;;;5087874;28;20212;-77
2024/02/28 02:45:57;;;;;;;0.30;0.20;;;13.10;99.90;;;;;;5087530;28;20169;-76
2024/02/28 02:48:23;;;;;;;0.40;0.33;;;13.20;99.90;;;;;;5086744;28;20291;-77
2024/02/28 02:50:48;;;;;;;1.47;1.47;;;13.10;99.90;;;;;;5086322;28;20371;-77
2024/02/28 02:53:14;;;;;;;0.30;0.20;;;13.10;99.90;;;;;;5085865;28;20519;-76
2024/02/28 02:55:40;;;;;;;0.30;0.20;;;13.10;99.90;;;;;;5087726;28;20625;-76
2024/02/28 02:58:05;;;;;;;0.40;0.30;;;13.10;99.90;;;;;;5087235;28;20200;-76
2024/02/28 03:00:31;;;;;;;0.30;0.20;;;13.10;99.90;;;;;;5087599;28;20259;-77
2024/02/28 03:02:57;;;;;;;0.30;0.20;;;13.10;99.90;;;;;;5087056;28;20200;-77
2024/02/28 03:05:22;;;;;;;1.47;1.37;;;13.10;99.90;;;;;;5087233;28;20181;-77
2024/02/28 03:07:48;;;;;;;0.30;0.20;;;13.10;99.90;;;;;;5087184;28;20257;-77
2024/02/28 03:10:14;;;;;;;0.30;0.30;;;13.10;99.90;;;;;;5085685;28;20229;-79
2024/02/28 03:12:41;;;;;;;0.30;0.20;;;13.10;99.90;;;;;;5087398;28;20232;-77
2024/02/28 03:15:07;;;;;;;0.30;0.20;;;13.10;99.90;;;;;;5086027;28;20294;-77
2024/02/28 03:17:33;;;;;;;0.30;0.20;;;13.10;99.90;;;;;;5085887;28;20444;-77
2024/02/28 03:19:58;;;;;;;0.30;0.30;;;13.10;99.90;;;;;;5087431;28;20393;-77
2024/02/28 03:22:24;;;;;;;0.30;0.20;;;13.10;99.90;;;;;;5085369;28;20172;-77
2024/02/28 03:24:50;;;;;;;0.30;0.20;;;13.10;99.90;;;;;;5086962;28;20314;-77
2024/02/28 03:27:15;;;;;;;0.30;0.20;;;13.10;99.90;;;;;;5085562;28;20416;-77
2024/02/28 03:29:41;;;;;;;0.30;0.30;;;13.10;99.90;;;;;;5087453;28;20265;-77
2024/02/28 03:32:07;;;;;;;0.40;0.40;;;13.20;99.90;;;;;;5086931;28;20232;-77
2024/02/28 03:34:32;;;;;;;0.30;0.20;;;13.20;99.90;;;;;;5085780;28;20305;-77
2024/02/28 03:36:58;;;;;;;0.30;0.27;;;13.10;99.90;;;;;;5087017;28;20244;-77
2024/02/28 03:39:24;;;;;;;0.90;0.83;;;13.20;99.90;;;;;;5086130;28;20207;-77
2024/02/28 03:41:49;;;;;;;0.30;0.30;;;13.10;99.90;;;;;;5085987;28;20173;-77
2024/02/28 03:44:15;;;;;;;0.30;0.20;;;13.10;99.90;;;;;;5086800;28;20521;-77
2024/02/28 03:46:41;;;;;;;0.30;0.20;;;13.10;99.90;;;;;;5086372;28;20172;-77
2024/02/28 03:49:06;;;;;;;0.40;0.33;;;13.10;99.90;;;;;;5085912;28;20207;-77
2024/02/28 03:51:32;;;;;;;0.50;0.50;;;13.10;99.90;;;;;;5086381;28;20307;-77
2024/02/28 03:53:58;;;;;;;0.30;0.20;;;13.20;99.90;;;;;;5086943;28;20220;-77
2024/02/28 03:56:25;;;;;;;0.30;0.30;;;13.20;99.90;;;;;;5085000;28;20212;-77
2024/02/28 03:58:51;;;;;;;0.30;0.20;;;13.30;99.90;;;;;;5086827;28;20188;-77
2024/02/28 04:01:16;;;;;;;0.30;0.30;;;13.30;99.90;;;;;;5086483;28;20757;-77
2024/02/28 04:03:42;;;;;;;0.93;0.90;;;13.30;99.90;;;;;;5086255;28;20444;-77
2024/02/28 04:06:08;;;;;;;0.30;0.20;;;13.30;99.90;;;;;;5084689;28;20774;-77
2024/02/28 04:08:34;;;;;;;0.30;0.20;;;13.40;99.90;;;;;;5084914;28;20580;-77
2024/02/28 04:10:59;;;;;;;0.33;0.33;;;13.40;99.90;;;;;;5085902;28;20537;-77
2024/02/28 04:13:25;;;;;;;0.30;0.20;;;13.40;99.90;;;;;;5085189;28;20307;-77
2024/02/28 04:15:51;;;;;;;0.30;0.20;;;13.40;99.90;;;;;;5086151;28;20397;-76
2024/02/28 04:18:17;;;;;;;0.30;0.20;;;13.40;99.90;;;;;;5086281;28;20192;-77
2024/02/28 04:20:43;;;;;;;0.97;0.97;;;13.40;99.90;;;;;;5086196;28;20405;-77
2024/02/28 04:23:08;;;;;;;0.30;0.20;;;13.40;99.90;;;;;;5085614;28;20205;-77
2024/02/28 04:25:35;;;;;;;0.30;0.20;;;13.50;99.90;;;;;;5085986;28;20177;-77
2024/02/28 04:28:01;;;;;;;0.30;0.20;;;13.50;99.90;;;;;;5084390;28;20212;-77
2024/02/28 04:30:27;;;;;;;1.47;1.47;;;13.50;99.90;;;;;;5085833;28;20401;-77
2024/02/28 04:32:53;;;;;;;0.30;0.30;;;13.50;99.90;;;;;;5084091;28;20537;-77
2024/02/28 04:35:18;;;;;;;0.30;0.20;;;13.50;99.90;;;;;;5085700;28;20711;-77
2024/02/28 04:37:47;;;;;;;0.30;0.20;;;13.50;99.90;;;;;;5084373;28;20480;-77
2024/02/28 04:40:13;;;;;;;0.30;0.30;;;13.50;99.90;;;;;;5083154;28;20169;-77
2024/02/28 04:42:39;;;;;;;0.30;0.20;;;13.50;99.90;;;;;;5085419;28;20556;-77
2024/02/28 04:45:06;;;;;;;0.30;0.20;;;13.50;99.90;;;;;;5085471;28;20886;-77
2024/02/28 04:47:31;;;;;;;0.30;0.20;;;13.50;99.90;;;;;;5085259;28;20755;-77
2024/02/28 04:49:57;;;;;;;0.30;0.20;;;13.60;99.90;;;;;;5084380;28;20401;-77
2024/02/28 04:52:24;;;;;;;0.30;0.20;;;13.50;99.90;;;;;;5085018;28;20208;-77
2024/02/28 04:54:51;;;;;;;0.30;0.20;;;13.60;99.90;;;;;;5085545;28;20383;-77
2024/02/28 04:57:16;;;;;;;0.30;0.20;;;13.60;99.90;;;;;;5084984;28;20387;-77
2024/02/28 04:59:43;;;;;;;0.30;0.20;;;13.50;99.90;;;;;;5085208;28;20736;-77
2024/02/28 05:02:09;;;;;;;0.30;0.20;;;13.50;99.90;;;;;;5084652;28;20642;-77
2024/02/28 05:04:35;;;;;;;0.30;0.20;;;13.50;99.90;;;;;;5084487;28;20488;-77
2024/02/28 05:07:01;;;;;;;0.30;0.30;;;13.50;99.90;;;;;;5084405;28;21012;-77
2024/02/28 05:09:27;;;;;;;0.40;0.40;;;13.50;99.90;;;;;;5083496;28;20520;-77
2024/02/28 05:11:52;;;;;;;0.90;0.90;;;13.50;99.90;;;;;;5084634;28;20512;-77
2024/02/28 05:14:18;;;;;;;0.30;0.20;;;13.40;99.90;;;;;;5083270;28;20211;-77
2024/02/28 05:16:44;;;;;;;0.30;0.20;;;13.50;99.90;;;;;;5082880;28;20173;-77
2024/02/28 05:19:09;;;;;;;1.03;1.03;;;13.50;99.90;;;;;;5081078;28;20211;-77
2024/02/28 05:21:42;;;;;;;0.30;0.20;;;13.40;99.90;;;;;;5070674;28;20475;-77
2024/02/28 05:24:08;;;;;;;0.30;0.20;;;13.40;99.90;;;;;;5081955;28;20619;-77
2024/02/28 05:26:35;;;;;;;0.30;0.20;;;13.40;99.90;;;;;;5083224;28;20405;-77
2024/02/28 05:29:03;;;;;;;2.10;1.80;;;13.40;99.90;;;;;;5083688;28;20440;-77
2024/02/28 05:31:28;;;;;;;39.90;26.40;;;13.40;99.90;;;;;;5082065;28;20471;-78
2024/02/28 05:33:58;;;;;;;1.40;1.40;;;13.40;99.90;;;;;;5082379;28;20445;-77
2024/02/28 05:36:28;;;;;;;0.30;0.20;;;13.40;99.90;;;;;;5072107;28;20169;-77
2024/02/28 05:38:57;;;;;;;2.73;2.63;;;13.30;99.90;;;;;;5070871;28;20572;-77
2024/02/28 05:41:23;;;;;;;0.83;0.83;;;13.30;99.90;;;;;;5071650;28;20383;-77
2024/02/28 05:43:49;;;;;;;0.30;0.20;;;13.30;99.90;;;;;;5072395;28;20586;-77
2024/02/28 05:46:16;;;;;;;0.30;0.20;;;13.20;99.90;;;;;;5093189;28;20424;-77
2024/02/28 05:48:43;;;;;;;2.10;2.00;;;13.20;99.90;;;;;;5074337;28;20459;-77
2024/02/28 05:51:08;;;;;;;1.67;1.03;;;13.10;99.90;;;;;;5070386;28;20392;-77
2024/02/28 05:53:38;;;;;;;0.40;0.40;;;13.10;99.90;;;;;;5066698;28;20751;-77
2024/02/28 05:56:04;;;;;;;0.30;0.20;;;13.10;99.90;;;;;;5066932;28;20161;-77
2024/02/28 05:58:30;;;;;;;0.30;0.20;;;13.00;99.90;;;;;;5082463;28;20548;-77
2024/02/28 06:00:57;;;;;;;0.40;0.40;;;13.00;99.90;;;;;;5078576;28;20402;-77
2024/02/28 06:03:22;;;;;;;2.63;2.53;;;13.00;99.90;;;;;;5074202;28;20505;-77
2024/02/28 06:05:48;;;;;;;0.30;0.20;;;13.00;99.90;;;;;;5083549;28;20533;-77
2024/02/28 06:08:14;;;;;;;0.30;0.30;;;13.00;99.90;;;;;;5081449;28;20223;-77
2024/02/28 06:10:42;;;;;;;0.30;0.20;;;13.00;99.90;;;;;;5079534;28;20191;-77
2024/02/28 06:13:08;;;;;;;0.30;0.20;;;13.00;99.90;;;;;;5093493;28;20233;-77
2024/02/28 06:15:33;;;;;;;0.30;0.20;;;13.00;99.90;;;;;;5084438;28;20662;-77
2024/02/28 06:18:00;;;;;;;0.30;0.20;;;13.00;99.90;;;;;;5088061;28;20444;-77
2024/02/28 06:20:26;;;;;;;3.13;2.83;;;13.00;99.90;;;;;;5085079;28;20194;-77
2024/02/28 06:22:52;;;;;;;2.80;2.70;;;13.00;99.90;;;;;;5083016;28;20468;-77
2024/02/28 06:25:19;;;;;;;1.43;1.30;;;13.00;99.90;;;;;;5080536;28;20638;-77
2024/02/28 06:27:45;;;;;;;0.30;0.20;;;13.00;99.90;;;;;;5075308;28;20208;-77
2024/02/28 06:30:12;;;;;;;0.30;0.20;;;13.00;99.90;;;;;;5078371;28;20831;-77
2024/02/28 06:32:38;;;;;;;0.30;0.20;;;13.00;99.90;;;;;;5076780;28;20986;-77
2024/02/28 06:35:05;;;;;;;0.30;0.20;;;13.00;99.90;;;;;;5085566;28;20475;-77
2024/02/28 06:37:30;;;;;;;1.33;1.33;;;13.00;99.90;;;;;;5081351;28;20447;-77
2024/02/28 06:39:56;;;;;;;0.30;0.20;;;13.00;99.90;;;;;;5078405;28;20931;-77
2024/02/28 06:42:22;;;;;;;0.30;0.20;;;13.00;99.90;;;;;;5076178;28;20184;-77
2024/02/28 06:44:48;;;;;;;0.30;0.20;;;13.00;99.90;;;;;;5080501;28;20180;-77
2024/02/28 06:47:13;;;;;;;0.30;0.30;;;13.10;99.90;;;;;;5077634;28;20330;-77
2024/02/28 06:49:39;;;;;;;0.30;0.20;;;13.10;99.90;;;;;;5072954;28;20177;-77
2024/02/28 06:52:05;;;;;;;14.40;13.13;;;13.10;99.90;;;;;;5078880;28;20709;-77
2024/02/28 06:54:31;;;;;;;0.30;0.20;;;13.10;99.90;;;;;;5075445;28;20246;-77
2024/02/28 06:56:57;;;;;;;0.40;0.20;;;13.10;99.90;;;;;;5075800;28;20616;-78
2024/02/28 06:59:23;;;;;;;0.30;0.20;;;13.00;99.90;;;;;;5081928;28;20853;-78
2024/02/28 07:01:48;;;;;;;0.60;0.60;;;13.00;99.90;;;;;;5082008;28;20595;-78
2024/02/28 07:04:14;;;;;;;0.30;0.20;;;13.10;99.90;;;;;;5066045;28;20781;-78
2024/02/28 07:06:40;;;;;;;0.47;0.47;;;13.10;99.90;;;;;;5064034;28;20162;-78
2024/02/28 07:09:08;;;;;;;0.63;0.63;;;13.10;99.90;;;;;;5078533;28;20204;-78
2024/02/28 07:11:34;;;;;;;0.30;0.20;;;13.20;99.90;;;;;;5074627;28;20262;-78
2024/02/28 07:14:02;;;;;;;0.30;0.20;;;13.20;99.90;;;;;;5071529;28;20535;-78
2024/02/28 07:16:29;;;;;;;0.30;0.20;;;13.30;99.90;;;;;;5073458;28;20428;-78
2024/02/28 07:18:54;;;;;;;0.30;0.20;;;13.30;99.90;;;;;;5082001;28;20453;-78
2024/02/28 07:21:20;;;;;;;0.30;0.30;;;13.30;99.90;;;;;;5075795;28;20428;-77
2024/02/28 07:23:46;;;;;;;0.30;0.20;;;13.30;99.90;;;;;;5076977;28;20204;-78
2024/02/28 07:26:18;;;;;;;0.40;0.40;;;13.40;99.90;;;;;;5076558;28;20438;-78
2024/02/28 07:28:49;;;;;;;1.63;1.47;;;13.50;99.90;;;;;;5082215;28;20296;-78
2024/02/28 07:31:19;;;;;;;0.30;0.20;;;13.50;99.90;;;;;;5082714;28;20433;-78
2024/02/28 07:33:45;;;;;;;0.67;0.67;;;13.50;99.90;;;;;;5080782;28;20445;-78
2024/02/28 07:36:11;;;;;;;0.30;0.20;;;13.50;99.90;;;;;;5079192;28;20506;-78
2024/02/28 07:38:37;;;;;;;0.30;0.30;;;13.50;99.90;;;;;;5084781;28;20494;-78
2024/02/28 07:41:03;;;;;;;0.50;0.50;;;13.50;99.90;;;;;;5098514;28;20823;-78
2024/02/28 07:43:32;;;;;;;0.30;0.27;;;13.50;99.90;;;;;;5075089;28;20473;-78
2024/02/28 07:45:58;;;;;;;0.83;0.83;;;13.50;99.90;;;;;;5072944;28;20538;-78
2024/02/28 07:48:24;;;;;;;2.83;2.63;;;13.40;99.90;;;;;;5064517;28;20966;-78
2024/02/28 07:50:50;;;;;;;1.53;1.37;;;13.40;99.90;;;;;;5080845;28;20448;-78
2024/02/28 07:53:17;;;;;;;0.50;0.50;;;13.40;99.90;;;;;;5083367;28;20247;-77
2024/02/28 07:55:43;;;;;;;0.40;0.40;;;13.40;99.90;;;;;;5068259;28;20665;-78
2024/02/28 07:58:09;;;;;;;0.60;0.60;;;13.40;99.90;;;;;;5075659;28;20492;-78
2024/02/28 08:00:35;;;;;;;0.37;0.30;;;13.50;99.90;;;;;;5079022;28;20180;-78
2024/02/28 08:03:01;;;;;;;5.10;4.20;;;13.50;99.90;;;;;;5063545;28;20480;-78
2024/02/28 08:05:26;;;;;;;0.30;0.20;;;13.60;99.90;;;;;;5072697;28;20413;-78
2024/02/28 08:07:52;;;;;;;0.30;0.20;;;13.60;99.90;;;;;;5076436;28;20448;-78
2024/02/28 08:10:18;;;;;;;0.30;0.20;;;13.70;99.90;;;;;;5075809;28;20439;-78
2024/02/28 08:12:44;;;;;;;4.70;4.37;;;13.80;99.90;;;;;;5067168;28;20227;-77
2024/02/28 08:15:10;;;;;;;4.57;2.97;;;14.10;99.90;;;;;;5081561;28;20716;-78
2024/02/28 08:17:36;;;;;;;2.10;1.90;;;14.60;99.90;;;;;;5076726;28;20574;-78
2024/02/28 08:20:04;;;;;;;1.60;1.60;;;15.00;99.90;;;;;;5071779;28;20436;-78
2024/02/28 08:22:31;;;;;;;0.40;0.30;;;15.70;99.90;;;;;;5073625;28;20977;-78
2024/02/28 08:24:56;;;;;;;0.60;0.50;;;16.20;99.90;;;;;;5079566;28;20839;-78
2024/02/28 08:27:23;;;;;;;0.40;0.20;;;16.60;99.90;;;;;;5069640;28;20417;-78
2024/02/28 08:29:49;;;;;;;0.53;0.53;;;17.10;99.90;;;;;;5078174;28;20248;-78
2024/02/28 08:32:15;;;;;;;2.20;0.90;;;17.50;99.90;;;;;;5078673;28;20453;-78
2024/02/28 08:34:45;;;;;;;0.60;0.60;;;17.70;99.90;;;;;;5075543;28;20427;-78
2024/02/28 08:37:12;;;;;;;2.40;2.30;;;18.10;99.90;;;;;;5073996;28;20182;-78
2024/02/28 08:39:37;;;;;;;0.80;0.80;;;18.50;99.90;;;;;;5082696;28;20439;-78
2024/02/28 08:42:03;;;;;;;0.40;0.30;;;18.60;99.90;;;;;;5081239;28;20455;-78
2024/02/28 08:44:29;;;;;;;0.63;0.50;;;18.90;99.90;;;;;;5075448;28;20263;-78
2024/02/28 08:46:54;;;;;;;0.57;0.57;;;19.20;99.90;;;;;;5070644;28;20473;-79
2024/02/28 08:49:20;;;;;;;1.23;1.23;;;19.70;99.90;;;;;;5079330;28;20239;-78
2024/02/28 08:51:46;;;;;;;5.20;4.83;;;20.10;99.90;;;;;;5073402;28;20450;-78
2024/02/28 08:54:11;;;;;;;1.10;1.00;;;20.30;99.90;;;;;;5077905;28;20455;-78
2024/02/28 08:56:37;;;;;;;1.80;1.70;;;20.20;99.90;;;;;;5079669;28;20508;-78
2024/02/28 08:59:03;;;;;;;3.90;3.60;;;20.40;99.90;;;;;;5079629;28;20200;-78
2024/02/28 09:01:29;;;;;;;0.60;0.60;;;20.50;99.90;;;;;;5073891;28;21075;-79
2024/02/28 09:03:54;;;;;;;0.63;0.63;;;20.80;99.90;;;;;;5077647;28;20212;-78
2024/02/28 09:06:20;;;;;;;0.43;0.43;;;21.20;99.90;;;;;;5083031;28;20192;-78
2024/02/28 09:08:46;;;;;;;1.10;1.10;;;21.90;99.40;;;;;;5080923;28;20711;-78
2024/02/28 09:11:12;;;;;;;0.50;0.50;;;22.40;98.60;;;;;;5079230;28;20455;-78
2024/02/28 09:13:39;;;;;;;1.10;1.07;;;22.60;97.70;;;;;;5075184;28;20336;-78
2024/02/28 09:16:05;;;;;;;0.40;0.30;;;22.60;97.50;;;;;;5075007;28;20519;-78
2024/02/28 09:18:30;;;;;;;0.30;0.20;;;23.00;96.90;;;;;;5072724;28;20667;-78
2024/02/28 09:20:56;;;;;;;0.43;0.43;;;23.40;96.30;;;;;;5067847;28;20262;-78
2024/02/28 09:23:22;;;;;;;0.30;0.20;;;23.70;95.60;;;;;;5076736;28;20792;-78
2024/02/28 09:25:47;;;;;;;0.40;0.40;;;23.60;95.30;;;;;;5074584;28;20700;-78
2024/02/28 09:28:15;;;;;;;0.83;0.47;;;23.60;95.40;;;;;;5072655;28;20203;-78
2024/02/28 09:30:42;;;;;;;1.33;1.33;;;23.50;95.00;;;;;;5073660;28;20185;-78
2024/02/28 09:33:08;;;;;;;0.30;0.20;;;23.50;95.40;;;;;;5073468;28;20480;-78
2024/02/28 09:35:37;;;;;;;0.30;0.20;;;23.70;95.00;;;;;;5074002;28;20742;-78
2024/02/28 09:38:03;;;;;;;0.30;0.20;;;23.80;95.10;;;;;;5071532;28;20468;-79
2024/02/28 09:40:30;;;;;;;0.60;0.60;;;24.00;94.40;;;;;;5070523;28;20466;-78
2024/02/28 09:43:01;;;;;;;4.37;2.63;;;23.90;94.30;;;;;;5077670;28;20756;-78
2024/02/28 09:45:30;;;;;;;1.37;1.30;;;23.70;94.50;;;;;;5076304;28;20423;-78
2024/02/28 09:48:00;;;;;;;0.50;0.50;;;23.70;94.20;;;;;;5075273;28;20945;-79
2024/02/28 09:50:29;;;;;;;0.83;0.80;;;23.70;94.30;;;;;;5078070;28;20420;-79
2024/02/28 09:52:54;;;;;;;0.40;0.40;;;24.00;94.60;;;;;;5072386;28;20482;-79
2024/02/28 09:55:20;;;;;;;1.73;1.67;;;24.20;93.70;;;;;;5074660;28;20421;-78
2024/02/28 09:57:50;;;;;;;0.47;0.47;;;24.30;93.30;;;;;;5074040;28;20207;-78
2024/02/28 10:00:19;;;;;;;1.07;1.07;;;24.40;93.40;;;;;;5067393;28;20955;-78
2024/02/28 10:02:47;;;;;;;0.30;0.20;;;24.50;93.10;;;;;;5065007;28;20916;-78
2024/02/28 10:05:14;;;;;;;0.70;0.70;;;24.50;93.00;;;;;;5068477;28;20781;-78
2024/02/28 10:07:40;;;;;;;5.00;3.17;;;24.60;93.20;;;;;;5075986;28;21155;-78
2024/02/28 10:10:08;;;;;;;1.73;1.67;;;24.60;92.80;;;;;;5069575;28;21044;-78
2024/02/28 10:12:34;;;;;;;1.57;1.10;;;24.60;92.90;;;;;;5071087;28;20525;-78
2024/02/28 10:15:03;;;;;;;1.03;0.93;;;24.60;92.70;;;;;;5078289;28;20424;-78
2024/02/28 10:17:29;;;;;;;0.30;0.20;;;24.60;92.40;;;;;;5074359;28;20498;-79
2024/02/28 10:19:57;;;;;;;0.67;0.67;;;24.50;92.50;;;;;;5069154;28;21152;-78
2024/02/28 10:22:24;;;;;;;1.63;1.63;;;24.30;92.40;;;;;;5073104;28;20604;-78
2024/02/28 10:24:56;;;;;;;0.30;0.20;;;24.00;92.60;;;;;;5073435;28;20427;-78
2024/02/28 10:27:21;;;;;;;0.90;0.90;;;23.80;92.90;;;;;;5074573;28;20593;-78
2024/02/28 10:29:47;;;;;;;0.30;0.30;;;23.40;93.20;;;;;;5073878;28;20773;-78
2024/02/28 10:32:13;;;;;;;0.33;0.30;;;23.00;93.60;;;;;;5067065;28;20226;-78
2024/02/28 10:34:39;;;;;;;0.40;0.30;;;22.70;93.90;;;;;;5078609;28;20393;-78
2024/02/28 10:37:05;;;;;;;0.40;0.30;;;22.50;93.80;;;;;;5075486;28;20657;-78
2024/02/28 10:39:32;;;;;;;5.50;3.73;;;22.50;93.90;;;;;;5076644;28;20958;-78
2024/02/28 10:42:01;;;;;;;0.70;0.70;;;22.40;93.80;;;;;;5074771;28;20431;-79
2024/02/28 10:44:27;;;;;;;0.30;0.20;;;22.40;93.90;;;;;;5074522;28;20457;-79
2024/02/28 10:46:54;;;;;;;0.33;0.30;;;22.20;94.00;;;;;;5068958;28;20423;-79
2024/02/28 10:49:20;;;;;;;0.40;0.30;;;22.00;94.50;;;;;;5067137;28;21233;-79
2024/02/28 10:51:48;;;;;;;0.30;0.20;;;22.00;94.40;;;;;;5074823;28;20845;-79
2024/02/28 10:54:14;;;;;;;0.30;0.20;;;21.90;94.60;;;;;;5073739;28;20461;-79
2024/02/28 10:56:41;;;;;;;1.43;1.07;;;21.80;94.50;;;;;;5070875;28;20445;-79
2024/02/28 10:59:08;;;;;;;0.60;0.60;;;21.70;94.80;;;;;;5072042;28;20610;-79
2024/02/28 11:01:43;;;;;;;1.10;1.10;;;21.60;94.90;;;;;;5072976;28;20436;-79
2024/02/28 11:04:12;;;;;;;0.30;0.30;;;21.60;95.00;;;;;;5073828;28;20443;-79
2024/02/28 11:06:50;;;;;;;0.30;0.20;;;21.50;95.10;;;;;;5074474;28;20509;-79
2024/02/28 11:09:22;;;;;;;0.30;0.30;;;21.50;95.10;;;;;;5076688;28;20437;-79
2024/02/28 11:11:52;;;;;;;0.40;0.20;;;21.40;95.20;;;;;;5076133;28;21083;-79
2024/02/28 11:14:22;;;;;;;0.30;0.30;;;21.30;95.40;;;;;;5075851;28;20453;-79
2024/02/28 11:16:59;;;;;;;0.30;0.20;;;21.10;95.60;;;;;;5078371;28;20425;-79
2024/02/28 11:19:27;;;;;;;0.30;0.20;;;20.90;95.70;;;;;;5063419;28;20449;-79
2024/02/28 11:21:57;;;;;;;0.40;0.30;;;21.00;95.90;;;;;;5080442;28;20508;-79
2024/02/28 11:24:34;;;;;;;0.60;0.60;;;21.00;96.00;;;;;;5077437;28;20510;-79
2024/02/28 11:27:00;;;;;;;0.30;0.20;;;20.90;96.00;;;;;;5080237;28;20417;-79
2024/02/28 11:29:28;;;;;;;1.70;1.60;;;20.80;96.00;;;;;;5075747;28;21234;-79
2024/02/28 11:31:54;;;;;;;0.60;0.60;;;20.70;96.20;;;;;;5080063;28;20656;-79
2024/02/28 11:34:20;;;;;;;0.30;0.20;;;20.80;96.20;;;;;;5073141;28;20485;-79
2024/02/28 11:36:50;;;;;;;0.30;0.20;;;20.80;96.40;;;;;;5079030;28;21049;-79
2024/02/28 11:39:17;;;;;;;0.40;0.33;;;20.80;96.40;;;;;;5072421;28;20494;-79
2024/02/28 11:41:46;;;;;;;1.70;1.60;;;20.90;96.70;;;;;;5077563;28;20469;-79
2024/02/28 11:44:14;;;;;;;2.10;2.00;;;20.90;96.60;;;;;;5077419;28;20448;-79
2024/02/28 11:46:46;;;;;;;11.03;2.10;;;21.00;96.50;;;;;;5080402;28;20938;-79
2024/02/28 11:49:16;;;;;;;0.30;0.30;;;21.10;96.60;;;;;;5079973;28;20830;-79
2024/02/28 11:51:42;;;;;;;0.30;0.20;;;21.20;96.50;;;;;;5075767;28;21058;-79
2024/02/28 11:54:11;;;;;;;4.77;2.77;;;21.20;96.30;;;;;;5079806;28;20509;-79
2024/02/28 11:56:40;;;;;;;0.30;0.20;;;21.30;96.40;;;;;;5081478;28;20419;-79
2024/02/28 11:59:06;;;;;;;0.30;0.30;;;21.40;96.60;;;;;;5075047;28;20756;-79
2024/02/28 12:01:36;;;;;;;1.47;1.37;;;21.40;96.20;;;;;;5074656;28;20535;-80
2024/02/28 12:04:04;;;;;;;0.30;0.20;;;21.50;96.40;;;;;;5076137;28;20437;-79
2024/02/28 12:06:30;;;;;;;0.50;0.50;;;21.70;96.00;;;;;;5076896;28;20696;-78
2024/02/28 12:08:56;;;;;;;0.70;0.70;;;21.70;95.70;;;;;;5068248;28;20688;-79
2024/02/28 12:11:21;;;;;;;0.70;0.70;;;21.60;95.60;;;;;;5071681;28;20341;-79
2024/02/28 12:13:47;;;;;;;0.30;0.20;;;21.50;96.10;;;;;;5070206;28;20633;-79
2024/02/28 12:16:13;;;;;;;0.30;0.20;;;21.60;96.20;;;;;;5075325;28;20199;-79
2024/02/28 12:18:40;;;;;;;0.30;0.30;;;21.70;96.00;;;;;;5073690;28;20209;-79
2024/02/28 12:21:06;;;;;;;0.30;0.20;;;21.70;95.90;;;;;;5076800;28;20510;-78
2024/02/28 12:23:32;;;;;;;1.23;1.23;;;21.80;96.00;;;;;;5075941;28;20816;-78
2024/02/28 12:25:57;;;;;;;0.30;0.30;;;21.80;95.60;;;;;;5077673;28;20181;-79
2024/02/28 12:28:23;;;;;;;0.30;0.20;;;21.90;95.40;;;;;;5076618;28;20199;-78
2024/02/28 12:30:49;;;;;;;0.97;0.80;;;21.90;95.50;;;;;;5071421;28;20185;-78
2024/02/28 12:33:14;;;;;;;0.30;0.20;;;22.00;95.60;;;;;;5072320;28;20843;-78
2024/02/28 12:35:41;;;;;;;0.30;0.20;;;22.00;95.90;;;;;;5071788;28;20598;-78
2024/02/28 12:38:07;;;;;;;0.30;0.20;;;22.00;95.20;;;;;;5071431;28;20196;-78
2024/02/28 12:40:33;;;;;;;0.30;0.30;;;22.00;95.30;;;;;;5073854;28;20417;-78